Time;durP1;ratioP1;P1;durP2;ratioP2;P2;SDS_P1;SDS_P2;PMS_P1;PMS_P2;Temp;Humidity;BMP_temperature;BMP_pressure;BME280_temperature;BME280_humidity;BME280_pressure;Samples;Min_cycle;Max_cycle;Signal;HPM_P1;HPM_P2
2022/01/28 00:05:34;;;;;;;6.30;3.47;;;6.00;99.90;;;;;;5033351;28;20198;-82
2022/01/28 00:08:03;;;;;;;4.10;3.00;;;6.20;99.90;;;;;;5051597;28;20170;-82
2022/01/28 00:10:30;;;;;;;6.03;4.00;;;6.30;99.90;;;;;;5034631;28;20309;-82
2022/01/28 00:16:01;;;;;;;4.87;3.50;;;6.20;99.90;;;;;;5038473;28;20198;-82
2022/01/28 00:37:59;;;;;;;4.07;2.83;;;6.20;99.90;;;;;;5033209;28;20645;-81
2022/01/28 00:40:11;;;;;;;3.77;2.93;;;6.20;99.90;;;;;;5019015;28;20209;-78
2022/01/28 00:42:37;;;;;;;5.30;3.10;;;6.30;99.90;;;;;;5033722;28;20228;-82
2022/01/28 00:45:04;;;;;;;5.03;3.23;;;6.40;99.90;;;;;;5032740;28;20173;-82
2022/01/28 00:47:30;;;;;;;4.30;3.00;;;6.50;99.90;;;;;;5033294;28;20185;-77
2022/01/28 00:49:56;;;;;;;3.70;2.70;;;6.50;99.90;;;;;;5034685;28;20177;-81
2022/01/28 00:52:22;;;;;;;3.73;2.50;;;6.30;99.90;;;;;;5033795;28;20178;-78
2022/01/28 00:54:50;;;;;;;4.50;2.63;;;6.40;99.90;;;;;;5033848;28;20217;-83
2022/01/28 00:57:16;;;;;;;3.60;2.60;;;6.40;99.90;;;;;;5001468;28;20664;-81
2022/01/28 00:59:42;;;;;;;4.63;3.17;;;6.30;99.90;;;;;;5033147;28;20177;-81
2022/01/28 01:02:08;;;;;;;4.03;2.50;;;6.30;99.90;;;;;;4999964;28;20213;-79
2022/01/28 01:04:33;;;;;;;4.33;2.43;;;6.20;99.90;;;;;;4999183;28;20178;-79
2022/01/28 01:07:01;;;;;;;4.13;2.73;;;6.00;99.90;;;;;;5015938;28;20189;-77
2022/01/28 01:09:27;;;;;;;2.97;2.23;;;6.10;99.90;;;;;;5032304;28;20260;-82
2022/01/28 01:11:53;;;;;;;3.17;2.23;;;6.20;99.90;;;;;;5049108;28;20540;-82
2022/01/28 01:14:20;;;;;;;2.93;2.07;;;6.30;99.90;;;;;;5032550;28;20235;-77
2022/01/28 01:19:27;;;;;;;4.63;2.53;;;6.00;99.90;;;;;;5033209;28;20914;-83
2022/01/28 01:21:57;;;;;;;3.40;2.10;;;6.00;99.90;;;;;;5050957;28;20181;-81
2022/01/28 01:24:25;;;;;;;4.73;2.57;;;6.00;99.90;;;;;;5034287;28;20261;-78
2022/01/28 01:26:52;;;;;;;3.60;2.17;;;6.30;99.90;;;;;;5048765;28;20585;-78
2022/01/28 01:29:22;;;;;;;4.47;2.60;;;6.50;99.90;;;;;;5048768;28;20188;-78
2022/01/28 01:31:48;;;;;;;4.33;2.47;;;6.20;99.90;;;;;;5015672;28;20545;-78
2022/01/28 01:34:20;;;;;;;4.10;2.47;;;6.10;99.90;;;;;;5015880;28;20201;-82
2022/01/28 01:36:48;;;;;;;3.40;2.10;;;6.20;99.90;;;;;;5015249;28;20208;-83
2022/01/28 01:39:20;;;;;;;3.17;2.53;;;6.10;99.90;;;;;;5033408;28;20178;-79
2022/01/28 01:41:54;;;;;;;3.97;2.70;;;6.00;99.90;;;;;;5015253;28;20186;-82
2022/01/28 01:45:27;;;;;;;4.63;2.60;;;6.20;99.90;;;;;;5016403;28;20172;-81
2022/01/28 01:52:53;;;;;;;3.37;2.80;;;6.00;99.90;;;;;;5018453;28;20173;-79
2022/01/28 01:55:19;;;;;;;6.53;2.43;;;6.20;99.90;;;;;;5032913;28;20177;-79
2022/01/28 01:57:45;;;;;;;4.70;2.87;;;6.30;99.90;;;;;;5032717;28;20287;-76
2022/01/28 02:00:12;;;;;;;4.27;2.70;;;6.20;99.90;;;;;;5031578;28;20543;-77
2022/01/28 02:02:38;;;;;;;3.73;2.60;;;6.00;99.90;;;;;;5031546;28;20269;-79
2022/01/28 02:05:04;;;;;;;3.87;2.30;;;5.90;99.90;;;;;;5048154;28;20540;-79
2022/01/28 02:07:31;;;;;;;3.57;2.50;;;6.00;99.90;;;;;;5031453;28;20968;-78
2022/01/28 02:09:57;;;;;;;4.87;2.57;;;6.00;99.90;;;;;;4998710;28;20264;-79
2022/01/28 02:12:24;;;;;;;2.77;2.33;;;6.00;99.90;;;;;;5031564;28;20192;-79
2022/01/28 02:14:50;;;;;;;6.20;2.90;;;5.70;99.90;;;;;;5012927;28;20248;-77
2022/01/28 02:17:16;;;;;;;3.47;2.50;;;5.90;99.90;;;;;;5038817;28;20236;-78
2022/01/28 02:19:41;;;;;;;3.60;2.53;;;6.00;99.90;;;;;;5047562;28;20174;-78
2022/01/28 02:22:08;;;;;;;5.10;3.00;;;6.10;99.90;;;;;;5014501;28;20232;-82
2022/01/28 02:24:41;;;;;;;4.60;2.90;;;6.10;99.90;;;;;;5032563;28;20201;-81
2022/01/28 02:27:07;;;;;;;4.47;2.50;;;6.10;99.90;;;;;;5001705;28;20209;-78
2022/01/28 02:29:35;;;;;;;3.63;2.50;;;5.80;99.90;;;;;;5047723;28;20181;-83
2022/01/28 02:32:04;;;;;;;2.73;2.20;;;5.90;99.90;;;;;;5030528;28;20189;-77
2022/01/28 02:34:33;;;;;;;3.93;2.53;;;5.90;99.90;;;;;;5038554;28;20559;-81
2022/01/28 02:36:59;;;;;;;5.77;2.73;;;5.90;99.90;;;;;;5035020;28;20204;-81
2022/01/28 02:39:25;;;;;;;3.17;2.63;;;5.90;99.90;;;;;;5034533;28;20177;-77
2022/01/28 02:41:57;;;;;;;3.00;2.20;;;5.80;99.90;;;;;;5050804;28;20193;-78
2022/01/28 02:44:41;;;;;;;4.40;2.43;;;5.80;99.90;;;;;;5026900;28;20182;-78
2022/01/28 02:47:12;;;;;;;4.57;2.40;;;5.90;99.90;;;;;;5017454;28;20170;-77
2022/01/28 02:49:38;;;;;;;3.50;2.23;;;5.80;99.90;;;;;;5032786;28;20177;-82
2022/01/28 02:52:05;;;;;;;3.70;2.53;;;5.80;99.90;;;;;;5049284;28;20257;-81
2022/01/28 02:54:36;;;;;;;4.13;2.40;;;5.70;99.90;;;;;;5033005;28;20261;-82
2022/01/28 02:57:05;;;;;;;4.20;2.30;;;5.90;99.90;;;;;;5030770;28;20170;-82
2022/01/28 02:59:32;;;;;;;2.87;1.90;;;5.80;99.90;;;;;;5000137;28;20170;-84
2022/01/28 03:01:57;;;;;;;2.57;2.27;;;5.70;99.90;;;;;;5019509;28;20229;-81
2022/01/28 03:07:07;;;;;;;3.03;2.17;;;5.50;99.90;;;;;;5018198;28;20267;-77
2022/01/28 03:10:01;;;;;;;4.13;2.10;;;5.60;99.90;;;;;;5017082;28;20173;-78
2022/01/28 03:12:34;;;;;;;10.03;2.33;;;5.70;99.90;;;;;;5064656;28;20521;-83
2022/01/28 03:15:05;;;;;;;3.47;2.07;;;5.70;99.90;;;;;;5030347;28;20368;-81
2022/01/28 03:22:45;;;;;;;2.77;2.23;;;5.80;99.90;;;;;;5019424;28;20256;-78
2022/01/28 03:25:11;;;;;;;3.53;2.60;;;5.80;99.90;;;;;;5017946;28;20304;-79
2022/01/28 03:27:59;;;;;;;4.13;2.37;;;5.90;99.90;;;;;;5041423;28;20184;-82
2022/01/28 03:30:25;;;;;;;4.73;2.00;;;5.90;99.90;;;;;;5039897;28;20575;-79
2022/01/28 03:32:51;;;;;;;3.20;2.27;;;5.90;99.90;;;;;;5046831;28;20173;-78
2022/01/28 03:35:18;;;;;;;4.03;2.40;;;5.80;99.90;;;;;;5039304;28;20181;-81
2022/01/28 03:37:44;;;;;;;3.97;2.43;;;5.60;99.90;;;;;;5037871;28;20550;-83
2022/01/28 03:40:11;;;;;;;5.00;2.53;;;5.70;99.90;;;;;;5055493;28;20268;-79
2022/01/28 03:42:37;;;;;;;5.10;2.90;;;5.80;99.90;;;;;;5053720;28;20584;-79
2022/01/28 03:45:05;;;;;;;3.93;2.30;;;5.80;99.90;;;;;;5056745;28;20224;-80
2022/01/28 03:47:32;;;;;;;4.30;2.43;;;5.80;99.90;;;;;;5034005;28;20236;-81
2022/01/28 03:49:58;;;;;;;5.20;2.50;;;5.70;99.90;;;;;;5034491;28;20174;-81
2022/01/28 03:52:24;;;;;;;5.17;2.70;;;5.70;99.90;;;;;;5050891;28;20633;-80
2022/01/28 03:54:49;;;;;;;3.40;2.40;;;5.90;99.90;;;;;;5001001;28;20253;-78
2022/01/28 03:57:15;;;;;;;4.23;2.70;;;5.80;99.90;;;;;;5033238;28;20791;-78
2022/01/28 03:59:41;;;;;;;2.73;2.00;;;5.80;99.90;;;;;;5033746;28;20543;-79
2022/01/28 04:02:10;;;;;;;3.40;2.60;;;5.80;99.90;;;;;;5033406;28;20227;-82
2022/01/28 04:12:40;;;;;;;3.37;2.20;;;6.00;99.90;;;;;;5036194;28;20703;-79
2022/01/28 04:17:33;;;;;;;3.27;2.40;;;5.80;99.90;;;;;;5034949;28;20265;-82
2022/01/28 04:19:59;;;;;;;4.50;3.13;;;5.80;99.90;;;;;;5036165;28;20180;-81
2022/01/28 04:22:25;;;;;;;5.30;2.63;;;5.70;99.90;;;;;;5016562;28;20202;-77
2022/01/28 04:24:51;;;;;;;4.70;2.67;;;5.60;99.90;;;;;;5016105;28;20680;-81
2022/01/28 04:27:17;;;;;;;4.97;2.70;;;5.70;99.90;;;;;;5050545;28;20228;-77
2022/01/28 04:29:44;;;;;;;4.47;2.70;;;5.90;99.90;;;;;;5035182;28;20201;-80
2022/01/28 04:32:10;;;;;;;4.27;2.80;;;5.90;99.90;;;;;;5033533;28;20201;-78
2022/01/28 04:34:36;;;;;;;3.80;2.30;;;6.00;99.90;;;;;;5034210;28;20527;-82
2022/01/28 04:37:12;;;;;;;4.93;3.00;;;5.80;99.90;;;;;;5034119;28;20190;-82
2022/01/28 04:52:51;;;;;;;3.10;2.50;;;5.90;99.90;;;;;;5033397;28;20177;-78
2022/01/28 05:11:22;;;;;;;4.80;3.10;;;5.70;99.90;;;;;;5004320;28;20222;-76
2022/01/28 05:27:02;;;;;;;4.87;2.87;;;5.80;99.90;;;;;;5032981;28;20263;-77
2022/01/28 05:29:28;;;;;;;4.93;2.93;;;5.90;99.90;;;;;;5016473;28;20201;-77
2022/01/28 05:31:54;;;;;;;7.20;3.27;;;5.90;99.90;;;;;;5030999;28;20174;-81
2022/01/28 05:34:24;;;;;;;4.17;2.73;;;5.80;99.90;;;;;;5047649;28;20308;-81
2022/01/28 05:36:50;;;;;;;3.83;2.63;;;5.90;99.90;;;;;;5015050;28;20185;-78
2022/01/28 05:39:15;;;;;;;4.90;2.70;;;5.70;99.90;;;;;;5032203;28;20185;-77
2022/01/28 05:41:41;;;;;;;5.97;3.20;;;5.70;99.90;;;;;;5030913;28;20182;-82
2022/01/28 05:44:07;;;;;;;5.53;3.27;;;5.60;99.90;;;;;;5014263;28;20206;-82
2022/01/28 05:46:33;;;;;;;5.03;3.20;;;5.60;99.90;;;;;;4997940;28;20186;-77
2022/01/28 05:48:59;;;;;;;5.33;3.13;;;5.60;99.90;;;;;;5034172;28;20178;-83
2022/01/28 05:51:25;;;;;;;4.23;3.00;;;5.70;99.90;;;;;;5047726;28;20594;-77
2022/01/28 05:53:53;;;;;;;6.03;3.40;;;5.70;99.90;;;;;;5031184;28;20178;-83
2022/01/28 05:56:19;;;;;;;4.17;3.13;;;5.60;99.90;;;;;;5030307;28;20188;-84
2022/01/28 05:58:45;;;;;;;4.10;2.77;;;5.40;99.90;;;;;;5032653;28;20232;-77
2022/01/28 06:01:11;;;;;;;5.90;3.83;;;5.30;99.90;;;;;;5022637;28;20222;-78
2022/01/28 06:03:37;;;;;;;5.77;2.97;;;5.20;99.90;;;;;;5031022;28;20205;-86
2022/01/28 06:06:03;;;;;;;5.10;3.30;;;5.20;99.90;;;;;;5029744;28;20182;-84
2022/01/28 06:08:28;;;;;;;5.70;3.17;;;5.20;99.90;;;;;;5011992;28;20174;-77
2022/01/28 06:10:54;;;;;;;4.47;3.00;;;5.40;99.90;;;;;;5010641;28;20204;-77
2022/01/28 06:13:20;;;;;;;8.37;3.20;;;5.40;99.90;;;;;;5027776;28;20190;-82
2022/01/28 06:15:47;;;;;;;4.63;3.23;;;5.50;99.90;;;;;;5011841;28;20669;-83
2022/01/28 06:18:13;;;;;;;4.20;3.10;;;5.50;99.90;;;;;;5026636;28;20208;-84
2022/01/28 06:20:39;;;;;;;4.47;2.67;;;5.40;99.90;;;;;;5021664;28;20186;-82
2022/01/28 06:23:05;;;;;;;5.43;3.30;;;5.30;99.90;;;;;;5009310;28;20209;-78
2022/01/28 06:25:30;;;;;;;5.63;3.70;;;5.50;99.90;;;;;;5024242;28;20679;-77
2022/01/28 06:27:56;;;;;;;5.10;3.17;;;5.30;99.90;;;;;;5002652;28;20190;-84
2022/01/28 06:30:22;;;;;;;6.73;3.10;;;5.30;99.90;;;;;;4972325;28;20231;-75
2022/01/28 06:32:49;;;;;;;5.33;3.37;;;5.30;99.90;;;;;;5017328;28;20194;-85
2022/01/28 06:35:15;;;;;;;3.90;3.10;;;5.60;99.90;;;;;;5027017;28;20268;-78
2022/01/28 06:37:43;;;;;;;5.90;3.40;;;5.70;99.90;;;;;;5026202;28;20256;-76
2022/01/28 06:40:15;;;;;;;4.50;2.83;;;5.80;99.90;;;;;;5026166;28;20521;-81
2022/01/28 06:42:41;;;;;;;5.70;3.07;;;5.80;99.90;;;;;;5029253;28;20213;-86
2022/01/28 06:45:07;;;;;;;6.03;3.43;;;5.80;99.90;;;;;;5021743;28;20223;-81
2022/01/28 06:47:37;;;;;;;4.40;3.40;;;5.80;99.90;;;;;;5008586;28;20642;-77
2022/01/28 06:50:05;;;;;;;9.03;3.47;;;5.80;99.90;;;;;;5008740;28;20166;-83
2022/01/28 06:52:32;;;;;;;4.87;3.30;;;5.60;99.90;;;;;;5009949;28;20757;-84
2022/01/28 06:55:00;;;;;;;8.20;3.97;;;5.50;99.90;;;;;;5013112;28;20250;-78
2022/01/28 06:57:27;;;;;;;6.67;3.70;;;5.50;99.90;;;;;;4996767;28;20636;-77
2022/01/28 06:59:53;;;;;;;8.80;4.07;;;5.60;99.90;;;;;;4997149;28;20189;-78
2022/01/28 07:02:19;;;;;;;6.17;3.30;;;5.60;99.90;;;;;;5005427;28;20197;-77
2022/01/28 07:04:44;;;;;;;6.40;3.23;;;5.50;99.90;;;;;;5011937;28;20261;-85
2022/01/28 07:07:10;;;;;;;6.03;3.37;;;5.50;99.90;;;;;;5012760;28;20178;-77
2022/01/28 07:09:36;;;;;;;7.03;3.63;;;5.30;99.90;;;;;;5012198;28;20433;-76
2022/01/28 07:12:02;;;;;;;6.57;3.70;;;5.20;99.90;;;;;;5013776;28;20171;-78
2022/01/28 07:14:28;;;;;;;6.57;3.83;;;5.40;99.90;;;;;;4997381;28;20213;-75
2022/01/28 07:16:54;;;;;;;4.70;3.27;;;5.50;99.90;;;;;;5015289;28;20229;-84
2022/01/28 07:19:20;;;;;;;9.77;4.63;;;5.40;99.90;;;;;;5049301;28;20188;-76
2022/01/28 07:21:47;;;;;;;6.43;3.83;;;5.40;99.90;;;;;;5033099;28;20181;-84
2022/01/28 07:24:13;;;;;;;5.00;3.60;;;5.30;99.90;;;;;;5017819;28;20201;-84
2022/01/28 07:26:38;;;;;;;6.37;3.97;;;5.30;99.90;;;;;;4986637;28;20181;-85
2022/01/28 07:29:04;;;;;;;5.07;3.63;;;5.40;99.90;;;;;;5033544;28;20177;-76
2022/01/28 07:31:32;;;;;;;8.03;3.40;;;5.40;99.90;;;;;;5033121;28;20572;-77
2022/01/28 07:33:58;;;;;;;8.30;3.50;;;5.30;99.90;;;;;;5001564;28;20258;-84
2022/01/28 07:36:24;;;;;;;7.03;3.67;;;5.40;99.90;;;;;;5033971;28;20284;-83
2022/01/28 07:38:49;;;;;;;5.50;3.43;;;5.40;99.90;;;;;;5016836;28;20181;-84
2022/01/28 07:41:15;;;;;;;6.13;3.60;;;5.20;99.90;;;;;;5033041;28;20174;-77
2022/01/28 07:43:42;;;;;;;5.70;3.70;;;5.50;99.90;;;;;;5049247;28;20198;-77
2022/01/28 07:46:08;;;;;;;6.33;3.77;;;5.60;99.90;;;;;;5033354;28;20169;-84
2022/01/28 07:48:34;;;;;;;6.27;3.90;;;5.60;99.90;;;;;;5033345;28;20190;-77
2022/01/28 07:51:00;;;;;;;7.30;4.13;;;5.50;99.90;;;;;;5016748;28;20213;-80
2022/01/28 07:53:25;;;;;;;5.70;3.73;;;5.60;99.90;;;;;;5035646;28;20189;-77
2022/01/28 07:55:51;;;;;;;6.80;3.97;;;5.60;99.90;;;;;;5000811;28;20228;-77
2022/01/28 07:58:17;;;;;;;6.90;3.73;;;5.50;99.90;;;;;;5019135;28;20205;-76
2022/01/28 08:00:43;;;;;;;7.40;3.77;;;5.60;99.90;;;;;;5028717;28;20194;-75
2022/01/28 08:03:09;;;;;;;6.40;3.27;;;5.60;99.90;;;;;;5012793;28;20229;-82
2022/01/28 08:05:36;;;;;;;7.40;3.20;;;5.50;99.90;;;;;;5013319;28;20254;-81
2022/01/28 08:08:05;;;;;;;6.77;3.33;;;5.40;99.90;;;;;;4996761;28;20175;-82
2022/01/28 08:10:32;;;;;;;6.57;3.67;;;5.50;99.90;;;;;;5012500;28;20177;-77
2022/01/28 08:13:05;;;;;;;7.10;3.70;;;5.80;99.90;;;;;;5014373;28;20670;-76
2022/01/28 08:15:32;;;;;;;6.57;3.50;;;5.80;99.90;;;;;;5013279;28;20202;-76
2022/01/28 08:17:58;;;;;;;5.60;3.30;;;5.80;99.90;;;;;;5033892;28;20554;-81
2022/01/28 08:20:23;;;;;;;5.83;3.70;;;6.10;99.90;;;;;;5015876;28;20181;-75
2022/01/28 08:22:52;;;;;;;6.90;2.87;;;6.20;99.90;;;;;;5032392;28;20978;-80
2022/01/28 08:25:21;;;;;;;7.00;3.00;;;6.10;99.90;;;;;;5032621;28;20186;-75
2022/01/28 08:27:48;;;;;;;10.13;3.10;;;6.00;99.90;;;;;;5032974;28;20178;-79
2022/01/28 08:30:21;;;;;;;6.00;3.37;;;6.10;99.90;;;;;;5017088;28;20231;-76
2022/01/28 08:32:47;;;;;;;7.37;4.10;;;6.30;99.90;;;;;;5030680;28;20432;-82
2022/01/28 08:35:14;;;;;;;5.67;3.20;;;6.20;99.90;;;;;;5032159;28;20920;-77
2022/01/28 08:37:40;;;;;;;4.00;2.67;;;6.30;99.90;;;;;;5025644;28;20192;-77
2022/01/28 08:40:09;;;;;;;4.53;2.90;;;6.20;99.90;;;;;;4998746;28;20185;-76
2022/01/28 08:42:35;;;;;;;5.77;3.07;;;6.10;99.90;;;;;;5032988;28;20194;-83
2022/01/28 08:45:04;;;;;;;8.97;3.60;;;6.60;99.90;;;;;;5032080;28;20223;-77
2022/01/28 08:47:31;;;;;;;7.17;3.30;;;6.50;99.90;;;;;;5032953;28;20176;-76
2022/01/28 08:50:04;;;;;;;5.63;3.10;;;6.40;99.90;;;;;;5031855;28;20182;-77
2022/01/28 08:52:33;;;;;;;4.00;2.57;;;6.10;99.90;;;;;;5047731;28;20228;-76
2022/01/28 08:55:01;;;;;;;5.33;2.77;;;6.30;99.90;;;;;;5032169;28;20633;-74
2022/01/28 08:57:26;;;;;;;7.07;3.20;;;6.40;99.90;;;;;;5032501;28;20170;-81
2022/01/28 08:59:52;;;;;;;3.83;2.60;;;6.50;99.90;;;;;;5031052;28;20192;-75
2022/01/28 09:02:18;;;;;;;4.97;2.67;;;6.50;99.90;;;;;;5031727;28;20227;-76
2022/01/28 09:04:45;;;;;;;4.63;2.47;;;6.60;99.90;;;;;;5030759;28;20181;-75
2022/01/28 09:07:11;;;;;;;3.97;2.60;;;6.40;99.90;;;;;;5013868;28;20683;-82
2022/01/28 09:09:38;;;;;;;6.83;2.47;;;6.60;99.90;;;;;;5013683;28;20178;-83
2022/01/28 09:12:29;;;;;;;3.37;2.20;;;6.50;99.90;;;;;;5031920;28;20277;-80
2022/01/28 09:14:56;;;;;;;3.73;2.30;;;6.60;99.90;;;;;;5031527;28;20182;-79
2022/01/28 09:17:23;;;;;;;3.30;1.90;;;6.80;99.90;;;;;;5046258;28;20249;-82
2022/01/28 09:19:49;;;;;;;6.83;2.93;;;6.90;99.90;;;;;;5031414;28;20256;-75
2022/01/28 09:22:15;;;;;;;5.17;3.37;;;6.90;99.90;;;;;;5029250;28;20696;-81
2022/01/28 09:24:41;;;;;;;6.70;3.23;;;6.90;99.90;;;;;;5030941;28;20698;-75
2022/01/28 09:27:07;;;;;;;5.83;2.73;;;7.10;99.90;;;;;;5031522;28;20554;-77
2022/01/28 09:29:33;;;;;;;4.00;2.47;;;7.00;99.90;;;;;;5032148;28;20166;-83
2022/01/28 09:32:00;;;;;;;7.93;3.07;;;7.00;99.90;;;;;;5030093;28;20196;-83
2022/01/28 09:34:27;;;;;;;4.40;2.70;;;6.80;99.90;;;;;;5030486;28;20319;-80
2022/01/28 09:36:53;;;;;;;6.23;2.57;;;7.00;99.90;;;;;;5030651;28;20200;-80
2022/01/28 09:39:20;;;;;;;6.30;2.53;;;7.00;99.90;;;;;;5013416;28;20178;-76
2022/01/28 09:41:48;;;;;;;6.80;2.17;;;7.00;99.90;;;;;;5030613;28;20227;-80
2022/01/28 09:44:18;;;;;;;4.80;2.83;;;7.00;99.90;;;;;;5029277;28;20672;-83
2022/01/28 09:46:45;;;;;;;5.77;2.20;;;7.00;99.90;;;;;;5028845;28;20178;-84
2022/01/28 09:49:14;;;;;;;7.00;2.20;;;7.20;99.90;;;;;;5014108;28;20201;-80
2022/01/28 09:51:40;;;;;;;4.47;1.93;;;7.10;99.90;;;;;;5017819;28;20547;-81
2022/01/28 09:54:05;;;;;;;3.83;1.70;;;7.20;99.90;;;;;;5021208;28;20190;-81
2022/01/28 09:56:31;;;;;;;6.47;2.83;;;7.40;99.90;;;;;;5012093;28;20220;-83
2022/01/28 09:58:59;;;;;;;2.97;1.97;;;7.30;99.90;;;;;;5032439;28;20277;-82
2022/01/28 10:01:26;;;;;;;7.93;5.37;;;7.60;99.90;;;;;;5013388;28;20193;-81
2022/01/28 10:04:05;;;;;;;6.90;4.53;;;7.60;99.90;;;;;;5032401;28;20222;-84
2022/01/28 10:06:35;;;;;;;4.47;2.10;;;7.40;99.90;;;;;;5030231;28;20188;-81
2022/01/28 10:09:09;;;;;;;4.10;1.90;;;7.60;99.90;;;;;;5030608;28;20178;-82
2022/01/28 10:11:37;;;;;;;4.63;1.87;;;7.80;99.90;;;;;;5030523;28;20174;-77
2022/01/28 10:14:12;;;;;;;5.43;2.60;;;7.80;99.90;;;;;;5030931;28;20323;-76
2022/01/28 10:16:38;;;;;;;6.37;1.93;;;7.80;99.90;;;;;;5026266;28;20213;-75
2022/01/28 10:19:06;;;;;;;5.23;1.67;;;7.80;99.90;;;;;;5029071;28;20243;-80
2022/01/28 10:21:39;;;;;;;4.33;1.60;;;7.90;99.90;;;;;;5030388;28;20193;-81
2022/01/28 10:24:24;;;;;;;4.03;1.60;;;7.90;99.90;;;;;;5029316;28;20209;-75
2022/01/28 10:26:52;;;;;;;10.23;1.80;;;7.90;99.90;;;;;;5030972;28;20186;-76
2022/01/28 10:29:33;;;;;;;3.40;1.37;;;7.90;99.90;;;;;;5012848;28;20173;-80
2022/01/28 10:32:11;;;;;;;2.47;1.40;;;7.90;99.90;;;;;;5030222;28;20178;-76
2022/01/28 10:34:47;;;;;;;4.33;1.50;;;7.80;99.90;;;;;;5046029;28;20267;-74
2022/01/28 10:37:20;;;;;;;4.53;1.40;;;7.70;99.90;;;;;;5031111;28;20189;-76
2022/01/28 10:40:06;;;;;;;4.80;1.67;;;7.80;99.90;;;;;;5028041;28;20924;-76
2022/01/28 10:42:41;;;;;;;7.30;2.23;;;7.80;99.90;;;;;;5034664;28;20689;-76
2022/01/28 10:45:13;;;;;;;3.60;1.50;;;7.80;99.90;;;;;;5022809;28;20185;-83
2022/01/28 10:47:46;;;;;;;4.73;1.57;;;8.10;99.90;;;;;;5027035;28;20212;-83
2022/01/28 10:50:33;;;;;;;6.63;1.70;;;8.20;99.90;;;;;;5031249;28;20173;-75
2022/01/28 10:53:21;;;;;;;2.87;1.40;;;8.10;99.90;;;;;;5031108;28;20196;-76
2022/01/28 10:55:54;;;;;;;2.50;1.53;;;8.30;99.90;;;;;;5024349;28;20213;-84
2022/01/28 10:58:21;;;;;;;3.00;1.43;;;8.30;99.90;;;;;;4990907;28;20209;-81
2022/01/28 11:00:49;;;;;;;3.37;1.50;;;8.30;99.90;;;;;;5029298;28;20185;-76
2022/01/28 11:03:18;;;;;;;4.87;1.63;;;8.30;99.90;;;;;;5012775;28;20228;-82
2022/01/28 11:05:45;;;;;;;4.57;1.30;;;8.30;99.90;;;;;;5028363;28;20218;-76
2022/01/28 11:08:13;;;;;;;3.07;1.53;;;8.30;99.90;;;;;;5029788;28;20186;-84
2022/01/28 11:10:41;;;;;;;3.70;1.27;;;8.40;99.90;;;;;;5029801;28;20544;-76
2022/01/28 11:13:10;;;;;;;3.20;1.60;;;8.20;99.90;;;;;;5030371;28;20235;-84
2022/01/28 11:15:36;;;;;;;3.80;1.27;;;8.10;99.90;;;;;;5023184;28;20201;-79
2022/01/28 11:18:04;;;;;;;3.77;1.43;;;8.00;99.90;;;;;;5028916;28;20216;-76
2022/01/28 11:20:57;;;;;;;4.07;1.10;;;8.10;99.90;;;;;;5011594;28;20182;-75
2022/01/28 11:23:31;;;;;;;2.17;1.20;;;8.30;99.90;;;;;;5042614;28;20527;-84
2022/01/28 11:26:21;;;;;;;4.23;1.17;;;8.20;99.90;;;;;;5017787;28;20209;-74
2022/01/28 11:28:50;;;;;;;5.17;1.27;;;7.90;99.90;;;;;;5031208;28;20182;-81
2022/01/28 11:31:40;;;;;;;2.50;1.23;;;8.10;99.90;;;;;;5029896;28;20182;-84
2022/01/28 11:34:18;;;;;;;1.70;1.00;;;8.30;99.90;;;;;;5009492;28;20186;-74
2022/01/28 11:36:44;;;;;;;1.83;1.03;;;8.40;99.90;;;;;;5016791;28;20173;-77
2022/01/28 11:39:37;;;;;;;6.77;1.23;;;8.20;99.90;;;;;;5029681;28;20182;-83
2022/01/28 11:42:10;;;;;;;2.77;1.60;;;8.40;99.90;;;;;;5016284;28;20193;-83
2022/01/28 11:44:43;;;;;;;6.53;3.90;;;8.20;99.90;;;;;;5034595;28;20268;-74
2022/01/28 11:47:11;;;;;;;2.30;1.33;;;7.90;99.90;;;;;;5016308;28;20589;-76
2022/01/28 11:50:05;;;;;;;3.43;1.47;;;8.20;99.90;;;;;;5032013;28;20198;-83
2022/01/28 11:52:33;;;;;;;2.97;1.10;;;8.10;99.90;;;;;;5028062;28;20198;-83
2022/01/28 11:55:14;;;;;;;3.47;1.40;;;8.20;99.90;;;;;;5001487;28;20191;-76
2022/01/28 11:58:01;;;;;;;4.27;1.10;;;8.30;99.90;;;;;;5039645;28;20277;-77
2022/01/28 12:00:34;;;;;;;3.53;1.40;;;8.10;99.90;;;;;;5032300;28;20541;-75
2022/01/28 12:03:01;;;;;;;6.77;3.47;;;8.10;99.90;;;;;;5031911;28;20218;-76
2022/01/28 12:05:52;;;;;;;2.13;1.00;;;7.90;99.90;;;;;;5025785;28;20186;-75
2022/01/28 12:08:19;;;;;;;8.77;3.30;;;8.10;99.90;;;;;;4992304;28;20646;-82
2022/01/28 12:10:49;;;;;;;2.63;1.23;;;7.70;99.90;;;;;;5011331;28;20643;-75
2022/01/28 12:13:17;;;;;;;10.40;3.93;;;7.90;99.90;;;;;;4996064;28;20178;-82
2022/01/28 12:16:00;;;;;;;6.17;1.97;;;7.70;99.90;;;;;;5022192;28;20204;-80
2022/01/28 12:18:54;;;;;;;2.60;1.20;;;7.80;99.90;;;;;;5032813;28;20223;-75
2022/01/28 12:21:28;;;;;;;5.40;1.40;;;7.90;99.90;;;;;;5033666;28;20177;-81
2022/01/28 12:24:20;;;;;;;4.63;2.13;;;8.00;99.90;;;;;;5016095;28;20837;-74
2022/01/28 12:27:06;;;;;;;5.13;1.80;;;8.10;99.90;;;;;;5050198;28;20198;-81
2022/01/28 12:29:43;;;;;;;6.07;2.73;;;8.70;99.90;;;;;;5019842;28;20268;-75
2022/01/28 12:32:10;;;;;;;1.47;1.17;;;9.00;99.90;;;;;;5032282;28;20181;-75
2022/01/28 12:34:43;;;;;;;4.87;1.87;;;9.10;99.90;;;;;;5022109;28;20206;-74
2022/01/28 12:37:11;;;;;;;3.97;1.50;;;8.80;99.90;;;;;;5030204;28;20188;-77
2022/01/28 12:39:49;;;;;;;3.83;1.33;;;8.90;99.90;;;;;;5015481;28;20240;-75
2022/01/28 12:42:27;;;;;;;4.57;1.57;;;9.00;99.90;;;;;;5021463;28;20209;-75
2022/01/28 12:44:59;;;;;;;4.50;1.73;;;8.80;99.90;;;;;;5032897;28;20217;-74
2022/01/28 12:47:31;;;;;;;5.47;1.83;;;8.50;99.90;;;;;;5024022;28;20174;-81
2022/01/28 12:50:04;;;;;;;3.10;1.67;;;8.30;99.90;;;;;;5016561;28;20190;-81
2022/01/28 12:52:34;;;;;;;6.00;2.77;;;8.20;99.90;;;;;;5026175;28;20240;-75
2022/01/28 12:55:01;;;;;;;10.03;3.20;;;8.40;99.90;;;;;;5027340;28;20224;-75
2022/01/28 12:57:27;;;;;;;6.77;2.40;;;8.40;99.90;;;;;;5032617;28;20546;-82
2022/01/28 12:59:53;;;;;;;5.77;2.47;;;8.00;99.90;;;;;;5033749;28;20186;-81
2022/01/28 13:02:20;;;;;;;3.00;1.70;;;8.00;99.90;;;;;;5019567;28;20247;-79
2022/01/28 13:10:25;;;;;;;4.43;2.40;;;8.10;99.90;;;;;;5021078;28;20205;-82
2022/01/28 13:12:52;;;;;;;4.10;2.33;;;8.20;99.90;;;;;;5025429;28;20178;-76
2022/01/28 13:15:19;;;;;;;4.27;2.70;;;8.70;99.90;;;;;;5023318;28;20266;-76
2022/01/28 13:17:54;;;;;;;3.77;2.00;;;8.70;99.90;;;;;;5022849;28;20276;-81
2022/01/28 13:20:20;;;;;;;3.87;2.70;;;8.50;99.90;;;;;;5033882;28;20178;-80
2022/01/28 13:22:52;;;;;;;6.67;2.90;;;8.30;99.90;;;;;;5015496;28;20263;-76
2022/01/28 13:25:26;;;;;;;6.10;2.70;;;8.20;99.90;;;;;;5017013;28;20272;-82
2022/01/28 13:27:55;;;;;;;5.73;2.90;;;8.30;99.90;;;;;;5036243;28;20181;-83
2022/01/28 13:30:22;;;;;;;7.00;3.00;;;8.10;99.90;;;;;;5013556;28;20268;-77
2022/01/28 13:32:50;;;;;;;7.30;3.50;;;8.00;99.90;;;;;;4998108;28;20201;-75
2022/01/28 13:35:24;;;;;;;4.77;2.90;;;8.10;99.90;;;;;;4998310;28;20185;-74
2022/01/28 13:38:02;;;;;;;4.27;2.47;;;7.90;99.90;;;;;;5005834;28;20202;-75
2022/01/28 13:40:36;;;;;;;5.53;3.03;;;8.00;99.90;;;;;;5031390;28;20169;-74
2022/01/28 13:43:09;;;;;;;4.90;2.70;;;8.10;99.90;;;;;;5030827;28;20555;-75
2022/01/28 13:46:05;;;;;;;4.73;2.70;;;8.30;99.90;;;;;;5016252;28;20288;-75
2022/01/28 13:48:41;;;;;;;4.60;2.70;;;8.10;99.90;;;;;;5046430;28;20602;-75
2022/01/28 13:51:20;;;;;;;6.83;3.10;;;8.00;99.90;;;;;;5023661;28;20177;-74
2022/01/28 13:56:33;;;;;;;6.67;2.53;;;7.80;99.90;;;;;;5032159;28;20174;-75
2022/01/28 13:59:00;;;;;;;4.40;2.57;;;7.80;99.90;;;;;;5031456;28;20274;-74
2022/01/28 14:01:27;;;;;;;5.67;2.80;;;7.60;99.90;;;;;;5028614;28;20197;-81
2022/01/28 14:03:58;;;;;;;8.43;3.53;;;7.50;99.90;;;;;;5031995;28;20233;-74
2022/01/28 14:06:28;;;;;;;5.10;2.50;;;7.80;99.90;;;;;;5031229;28;20177;-80
2022/01/28 14:09:12;;;;;;;5.33;2.90;;;7.70;99.90;;;;;;5031222;28;20245;-75
2022/01/28 14:11:49;;;;;;;5.57;2.73;;;7.80;99.90;;;;;;5012651;28;20285;-75
2022/01/28 14:14:24;;;;;;;4.90;2.97;;;7.70;99.90;;;;;;5030910;28;20188;-75
2022/01/28 14:16:54;;;;;;;4.30;2.77;;;7.80;99.90;;;;;;5025348;28;20989;-82
2022/01/28 14:19:20;;;;;;;4.40;2.97;;;7.80;99.90;;;;;;5010345;28;20237;-81
2022/01/28 14:21:48;;;;;;;5.87;3.47;;;8.00;99.90;;;;;;4994726;28;20518;-73
2022/01/28 14:24:17;;;;;;;6.32;3.85;;;8.10;99.90;;;;;;5030355;28;20471;-75
2022/01/28 14:26:44;;;;;;;3.93;2.70;;;7.90;99.90;;;;;;5013378;28;20182;-76
2022/01/28 14:29:22;;;;;;;6.77;3.13;;;7.80;99.90;;;;;;5029341;28;20189;-75
2022/01/28 14:31:50;;;;;;;8.20;3.13;;;7.70;99.90;;;;;;5008349;28;20721;-74
2022/01/28 14:34:17;;;;;;;5.27;2.90;;;7.50;99.90;;;;;;5023656;28;20281;-76
2022/01/28 14:36:43;;;;;;;6.13;2.70;;;7.40;99.90;;;;;;5025354;28;20174;-74
2022/01/28 14:39:10;;;;;;;4.73;2.77;;;7.70;99.90;;;;;;5020931;28;20193;-78
2022/01/28 14:41:39;;;;;;;3.90;2.83;;;7.90;99.90;;;;;;5002140;28;20174;-76
2022/01/28 14:44:05;;;;;;;6.83;3.30;;;8.00;99.90;;;;;;5001204;28;20625;-74
2022/01/28 14:46:35;;;;;;;5.73;3.20;;;7.90;99.90;;;;;;5029184;28;20256;-75
2022/01/28 14:49:04;;;;;;;4.93;2.77;;;7.70;99.90;;;;;;5020375;28;20175;-75
2022/01/28 14:51:31;;;;;;;5.40;2.50;;;7.70;99.90;;;;;;5014083;28;20609;-77
2022/01/28 14:53:57;;;;;;;6.77;3.80;;;7.80;99.90;;;;;;5009265;28;20269;-81